sensor_id;sensor_type;location;lat;lon;timestamp;P1;durP1;ratioP1;P2;durP2;ratioP2
71320;SDS011;59118;54.322;18.576;2022-09-17T00:00:47;4.60;;;0.88;;
71320;SDS011;59118;54.322;18.576;2022-09-17T00:03:15;3.40;;;0.82;;
71320;SDS011;59118;54.322;18.576;2022-09-17T00:05:41;6.40;;;1.00;;
71320;SDS011;59118;54.322;18.576;2022-09-17T00:08:09;3.43;;;0.90;;
71320;SDS011;59118;54.322;18.576;2022-09-17T00:10:37;3.40;;;0.80;;
71320;SDS011;59118;54.322;18.576;2022-09-17T00:13:06;4.70;;;0.80;;
71320;SDS011;59118;54.322;18.576;2022-09-17T00:15:40;7.18;;;1.20;;
71320;SDS011;59118;54.322;18.576;2022-09-17T00:18:09;3.85;;;1.00;;
71320;SDS011;59118;54.322;18.576;2022-09-17T00:20:41;3.87;;;1.03;;
71320;SDS011;59118;54.322;18.576;2022-09-17T00:23:08;3.05;;;1.00;;
71320;SDS011;59118;54.322;18.576;2022-09-17T00:25:40;4.82;;;1.20;;
71320;SDS011;59118;54.322;18.576;2022-09-17T00:28:09;3.60;;;0.88;;
71320;SDS011;59118;54.322;18.576;2022-09-17T00:30:40;4.25;;;0.95;;
71320;SDS011;59118;54.322;18.576;2022-09-17T00:33:10;3.50;;;1.03;;
71320;SDS011;59118;54.322;18.576;2022-09-17T00:35:38;4.78;;;1.20;;
71320;SDS011;59118;54.322;18.576;2022-09-17T00:38:05;4.18;;;1.30;;
71320;SDS011;59118;54.322;18.576;2022-09-17T00:40:31;3.95;;;1.08;;
71320;SDS011;59118;54.322;18.576;2022-09-17T00:42:58;3.42;;;0.90;;
71320;SDS011;59118;54.322;18.576;2022-09-17T00:45:26;2.50;;;0.80;;
71320;SDS011;59118;54.322;18.576;2022-09-17T00:47:57;3.80;;;0.95;;
71320;SDS011;59118;54.322;18.576;2022-09-17T00:50:29;3.42;;;0.80;;
71320;SDS011;59118;54.322;18.576;2022-09-17T00:53:06;2.95;;;0.90;;
71320;SDS011;59118;54.322;18.576;2022-09-17T00:55:36;4.00;;;1.08;;
71320;SDS011;59118;54.322;18.576;2022-09-17T00:58:05;1.73;;;0.90;;
71320;SDS011;59118;54.322;18.576;2022-09-17T01:00:35;3.90;;;0.90;;
71320;SDS011;59118;54.322;18.576;2022-09-17T01:03:02;3.97;;;1.00;;
71320;SDS011;59118;54.322;18.576;2022-09-17T01:08:20;2.88;;;0.90;;
71320;SDS011;59118;54.322;18.576;2022-09-17T01:13:51;4.63;;;1.00;;
71320;SDS011;59118;54.322;18.576;2022-09-17T01:16:32;2.72;;;0.80;;
71320;SDS011;59118;54.322;18.576;2022-09-17T01:22:00;4.82;;;1.00;;
71320;SDS011;59118;54.322;18.576;2022-09-17T01:27:20;1.42;;;0.75;;
71320;SDS011;59118;54.322;18.576;2022-09-17T01:32:41;2.85;;;0.80;;
71320;SDS011;59118;54.322;18.576;2022-09-17T01:38:25;1.97;;;1.00;;
71320;SDS011;59118;54.322;18.576;2022-09-17T01:41:33;8.40;;;1.13;;
71320;SDS011;59118;54.322;18.576;2022-09-17T01:44:21;4.60;;;1.10;;
71320;SDS011;59118;54.322;18.576;2022-09-17T01:46:53;2.78;;;0.90;;
71320;SDS011;59118;54.322;18.576;2022-09-17T01:49:22;3.78;;;1.00;;
71320;SDS011;59118;54.322;18.576;2022-09-17T01:51:52;3.07;;;1.03;;
71320;SDS011;59118;54.322;18.576;2022-09-17T01:59:47;3.83;;;1.10;;
71320;SDS011;59118;54.322;18.576;2022-09-17T02:05:05;4.47;;;1.30;;
71320;SDS011;59118;54.322;18.576;2022-09-17T02:07:37;3.63;;;1.17;;
71320;SDS011;59118;54.322;18.576;2022-09-17T02:10:11;6.05;;;0.90;;
71320;SDS011;59118;54.322;18.576;2022-09-17T02:12:45;5.68;;;1.00;;
71320;SDS011;59118;54.322;18.576;2022-09-17T02:15:15;3.75;;;1.00;;
71320;SDS011;59118;54.322;18.576;2022-09-17T02:17:47;3.27;;;0.90;;
71320;SDS011;59118;54.322;18.576;2022-09-17T02:20:15;1.73;;;0.70;;
71320;SDS011;59118;54.322;18.576;2022-09-17T02:22:49;3.08;;;0.70;;
71320;SDS011;59118;54.322;18.576;2022-09-17T02:30:32;3.67;;;0.90;;
71320;SDS011;59118;54.322;18.576;2022-09-17T02:33:00;2.33;;;0.90;;
71320;SDS011;59118;54.322;18.576;2022-09-17T02:35:29;3.30;;;0.90;;
71320;SDS011;59118;54.322;18.576;2022-09-17T02:37:56;3.17;;;1.00;;
71320;SDS011;59118;54.322;18.576;2022-09-17T02:40:26;2.20;;;0.90;;
71320;SDS011;59118;54.322;18.576;2022-09-17T02:56:36;3.10;;;1.00;;
71320;SDS011;59118;54.322;18.576;2022-09-17T02:59:14;3.95;;;1.10;;
71320;SDS011;59118;54.322;18.576;2022-09-17T03:01:57;2.45;;;0.88;;
71320;SDS011;59118;54.322;18.576;2022-09-17T03:04:52;6.30;;;0.95;;
71320;SDS011;59118;54.322;18.576;2022-09-17T03:07:19;2.97;;;1.00;;
71320;SDS011;59118;54.322;18.576;2022-09-17T03:09:47;3.47;;;0.87;;
71320;SDS011;59118;54.322;18.576;2022-09-17T03:12:14;3.78;;;0.90;;
71320;SDS011;59118;54.322;18.576;2022-09-17T03:14:41;6.32;;;0.90;;
71320;SDS011;59118;54.322;18.576;2022-09-17T03:17:07;2.63;;;1.00;;
71320;SDS011;59118;54.322;18.576;2022-09-17T03:19:35;3.85;;;0.90;;
71320;SDS011;59118;54.322;18.576;2022-09-17T03:22:04;2.77;;;0.80;;
71320;SDS011;59118;54.322;18.576;2022-09-17T03:24:31;4.40;;;0.80;;
71320;SDS011;59118;54.322;18.576;2022-09-17T03:26:57;4.25;;;0.77;;
71320;SDS011;59118;54.322;18.576;2022-09-17T03:29:24;7.10;;;1.17;;
71320;SDS011;59118;54.322;18.576;2022-09-17T03:31:50;3.63;;;0.60;;
71320;SDS011;59118;54.322;18.576;2022-09-17T03:34:17;2.83;;;0.70;;
71320;SDS011;59118;54.322;18.576;2022-09-17T03:36:44;3.08;;;0.63;;
71320;SDS011;59118;54.322;18.576;2022-09-17T03:39:10;3.13;;;0.60;;
71320;SDS011;59118;54.322;18.576;2022-09-17T03:41:36;3.67;;;0.70;;
71320;SDS011;59118;54.322;18.576;2022-09-17T03:44:03;2.22;;;0.73;;
71320;SDS011;59118;54.322;18.576;2022-09-17T03:46:30;3.80;;;0.93;;
71320;SDS011;59118;54.322;18.576;2022-09-17T03:48:58;4.50;;;0.90;;
71320;SDS011;59118;54.322;18.576;2022-09-17T03:51:25;3.00;;;0.63;;
71320;SDS011;59118;54.322;18.576;2022-09-17T03:53:52;1.10;;;0.55;;
71320;SDS011;59118;54.322;18.576;2022-09-17T03:56:21;4.53;;;0.77;;
71320;SDS011;59118;54.322;18.576;2022-09-17T03:58:47;2.17;;;0.87;;
71320;SDS011;59118;54.322;18.576;2022-09-17T04:01:14;2.55;;;0.60;;
71320;SDS011;59118;54.322;18.576;2022-09-17T04:03:40;3.35;;;0.70;;
71320;SDS011;59118;54.322;18.576;2022-09-17T04:06:08;3.08;;;0.77;;
71320;SDS011;59118;54.322;18.576;2022-09-17T04:08:35;4.88;;;1.25;;
71320;SDS011;59118;54.322;18.576;2022-09-17T04:11:01;3.43;;;0.90;;
71320;SDS011;59118;54.322;18.576;2022-09-17T04:13:28;4.68;;;1.00;;
71320;SDS011;59118;54.322;18.576;2022-09-17T04:15:54;2.05;;;0.77;;
71320;SDS011;59118;54.322;18.576;2022-09-17T04:18:22;4.22;;;0.88;;
71320;SDS011;59118;54.322;18.576;2022-09-17T04:20:53;3.97;;;0.90;;
71320;SDS011;59118;54.322;18.576;2022-09-17T04:23:19;3.70;;;1.07;;
71320;SDS011;59118;54.322;18.576;2022-09-17T04:25:46;3.17;;;1.10;;
71320;SDS011;59118;54.322;18.576;2022-09-17T04:28:12;2.88;;;1.00;;
71320;SDS011;59118;54.322;18.576;2022-09-17T04:30:39;2.83;;;1.10;;
71320;SDS011;59118;54.322;18.576;2022-09-17T04:33:08;2.60;;;1.02;;
71320;SDS011;59118;54.322;18.576;2022-09-17T04:35:35;2.80;;;1.00;;
71320;SDS011;59118;54.322;18.576;2022-09-17T04:38:01;1.80;;;0.95;;
71320;SDS011;59118;54.322;18.576;2022-09-17T04:40:28;3.30;;;1.30;;
71320;SDS011;59118;54.322;18.576;2022-09-17T04:42:56;3.83;;;1.50;;
71320;SDS011;59118;54.322;18.576;2022-09-17T04:45:29;4.07;;;1.40;;
71320;SDS011;59118;54.322;18.576;2022-09-17T04:47:58;4.07;;;1.70;;
71320;SDS011;59118;54.322;18.576;2022-09-17T04:50:25;3.58;;;1.88;;
71320;SDS011;59118;54.322;18.576;2022-09-17T04:52:51;5.18;;;1.80;;
71320;SDS011;59118;54.322;18.576;2022-09-17T04:55:17;2.10;;;1.30;;
71320;SDS011;59118;54.322;18.576;2022-09-17T04:57:48;3.85;;;1.50;;
71320;SDS011;59118;54.322;18.576;2022-09-17T05:00:16;6.47;;;1.50;;
71320;SDS011;59118;54.322;18.576;2022-09-17T05:02:47;6.30;;;1.40;;
71320;SDS011;59118;54.322;18.576;2022-09-17T05:05:15;3.88;;;1.50;;
71320;SDS011;59118;54.322;18.576;2022-09-17T05:07:43;3.05;;;1.50;;
71320;SDS011;59118;54.322;18.576;2022-09-17T05:10:10;5.20;;;1.60;;
71320;SDS011;59118;54.322;18.576;2022-09-17T05:12:52;4.87;;;1.60;;
71320;SDS011;59118;54.322;18.576;2022-09-17T05:15:20;4.70;;;1.48;;
71320;SDS011;59118;54.322;18.576;2022-09-17T05:17:48;5.00;;;1.40;;
71320;SDS011;59118;54.322;18.576;2022-09-17T05:20:15;4.60;;;1.50;;
71320;SDS011;59118;54.322;18.576;2022-09-17T05:22:42;5.85;;;1.65;;
71320;SDS011;59118;54.322;18.576;2022-09-17T05:25:11;4.57;;;1.80;;
71320;SDS011;59118;54.322;18.576;2022-09-17T05:27:40;9.90;;;2.03;;
71320;SDS011;59118;54.322;18.576;2022-09-17T05:30:08;4.28;;;1.60;;
71320;SDS011;59118;54.322;18.576;2022-09-17T05:32:35;4.40;;;1.60;;
71320;SDS011;59118;54.322;18.576;2022-09-17T05:35:03;5.80;;;1.80;;
71320;SDS011;59118;54.322;18.576;2022-09-17T05:37:31;5.37;;;1.90;;
71320;SDS011;59118;54.322;18.576;2022-09-17T05:39:57;5.03;;;1.83;;
71320;SDS011;59118;54.322;18.576;2022-09-17T05:42:24;4.28;;;1.90;;
71320;SDS011;59118;54.322;18.576;2022-09-17T05:44:51;4.95;;;1.75;;
71320;SDS011;59118;54.322;18.576;2022-09-17T05:47:17;4.55;;;1.67;;
71320;SDS011;59118;54.322;18.576;2022-09-17T05:49:45;3.50;;;1.80;;
71320;SDS011;59118;54.322;18.576;2022-09-17T05:52:12;5.20;;;1.90;;
71320;SDS011;59118;54.322;18.576;2022-09-17T05:54:40;6.55;;;2.25;;
71320;SDS011;59118;54.322;18.576;2022-09-17T05:57:07;4.20;;;1.83;;
71320;SDS011;59118;54.322;18.576;2022-09-17T05:59:34;3.72;;;1.95;;
71320;SDS011;59118;54.322;18.576;2022-09-17T06:02:04;4.67;;;1.87;;
71320;SDS011;59118;54.322;18.576;2022-09-17T06:04:33;4.78;;;1.90;;
71320;SDS011;59118;54.322;18.576;2022-09-17T06:07:06;6.18;;;2.20;;
71320;SDS011;59118;54.322;18.576;2022-09-17T06:10:06;4.72;;;1.92;;
71320;SDS011;59118;54.322;18.576;2022-09-17T06:12:36;7.38;;;1.95;;
71320;SDS011;59118;54.322;18.576;2022-09-17T06:15:02;6.77;;;2.20;;
71320;SDS011;59118;54.322;18.576;2022-09-17T06:17:33;5.28;;;1.95;;
71320;SDS011;59118;54.322;18.576;2022-09-17T06:20:00;3.28;;;1.65;;
71320;SDS011;59118;54.322;18.576;2022-09-17T06:22:28;5.15;;;1.90;;
71320;SDS011;59118;54.322;18.576;2022-09-17T06:24:55;4.22;;;1.80;;
71320;SDS011;59118;54.322;18.576;2022-09-17T06:27:22;4.17;;;1.90;;
71320;SDS011;59118;54.322;18.576;2022-09-17T06:29:50;5.85;;;2.15;;
71320;SDS011;59118;54.322;18.576;2022-09-17T06:32:16;3.42;;;1.90;;
71320;SDS011;59118;54.322;18.576;2022-09-17T06:34:43;7.20;;;1.98;;
71320;SDS011;59118;54.322;18.576;2022-09-17T06:37:09;7.38;;;2.30;;
71320;SDS011;59118;54.322;18.576;2022-09-17T06:39:36;5.07;;;2.00;;
71320;SDS011;59118;54.322;18.576;2022-09-17T06:42:03;6.72;;;2.40;;
71320;SDS011;59118;54.322;18.576;2022-09-17T06:44:29;4.95;;;2.05;;
71320;SDS011;59118;54.322;18.576;2022-09-17T06:46:56;6.13;;;2.00;;
71320;SDS011;59118;54.322;18.576;2022-09-17T06:49:23;6.22;;;1.90;;
71320;SDS011;59118;54.322;18.576;2022-09-17T06:51:51;5.20;;;2.10;;
71320;SDS011;59118;54.322;18.576;2022-09-17T06:54:17;6.82;;;2.15;;
71320;SDS011;59118;54.322;18.576;2022-09-17T06:56:45;5.95;;;1.90;;
71320;SDS011;59118;54.322;18.576;2022-09-17T06:59:12;3.53;;;1.80;;
71320;SDS011;59118;54.322;18.576;2022-09-17T07:01:39;10.77;;;2.10;;
71320;SDS011;59118;54.322;18.576;2022-09-17T07:04:06;5.50;;;1.50;;
71320;SDS011;59118;54.322;18.576;2022-09-17T07:06:32;2.88;;;1.70;;
71320;SDS011;59118;54.322;18.576;2022-09-17T07:08:59;4.82;;;2.00;;
71320;SDS011;59118;54.322;18.576;2022-09-17T07:11:28;4.78;;;1.65;;
71320;SDS011;59118;54.322;18.576;2022-09-17T07:13:55;4.13;;;1.63;;
71320;SDS011;59118;54.322;18.576;2022-09-17T07:16:22;5.73;;;1.60;;
71320;SDS011;59118;54.322;18.576;2022-09-17T07:18:49;3.33;;;1.50;;
71320;SDS011;59118;54.322;18.576;2022-09-17T07:21:16;3.83;;;1.58;;
71320;SDS011;59118;54.322;18.576;2022-09-17T07:23:42;6.57;;;1.60;;
71320;SDS011;59118;54.322;18.576;2022-09-17T07:26:13;4.60;;;1.73;;
71320;SDS011;59118;54.322;18.576;2022-09-17T07:28:41;4.13;;;1.80;;
71320;SDS011;59118;54.322;18.576;2022-09-17T07:31:09;3.38;;;1.40;;
71320;SDS011;59118;54.322;18.576;2022-09-17T07:33:41;5.15;;;1.40;;
71320;SDS011;59118;54.322;18.576;2022-09-17T07:36:12;3.47;;;1.50;;
71320;SDS011;59118;54.322;18.576;2022-09-17T07:38:40;5.78;;;1.60;;
71320;SDS011;59118;54.322;18.576;2022-09-17T07:41:09;4.30;;;1.30;;
71320;SDS011;59118;54.322;18.576;2022-09-17T07:43:38;4.38;;;1.38;;
71320;SDS011;59118;54.322;18.576;2022-09-17T07:46:06;3.45;;;1.25;;
71320;SDS011;59118;54.322;18.576;2022-09-17T07:48:35;3.75;;;1.13;;
71320;SDS011;59118;54.322;18.576;2022-09-17T07:51:02;3.10;;;1.40;;
71320;SDS011;59118;54.322;18.576;2022-09-17T07:53:28;2.27;;;1.10;;
71320;SDS011;59118;54.322;18.576;2022-09-17T07:55:58;2.95;;;1.15;;
71320;SDS011;59118;54.322;18.576;2022-09-17T07:58:44;2.72;;;1.17;;
71320;SDS011;59118;54.322;18.576;2022-09-17T08:01:11;2.35;;;1.08;;
71320;SDS011;59118;54.322;18.576;2022-09-17T08:03:38;3.58;;;1.38;;
71320;SDS011;59118;54.322;18.576;2022-09-17T08:06:06;3.73;;;1.27;;
71320;SDS011;59118;54.322;18.576;2022-09-17T08:08:36;3.45;;;1.13;;
71320;SDS011;59118;54.322;18.576;2022-09-17T08:11:06;3.03;;;1.30;;
71320;SDS011;59118;54.322;18.576;2022-09-17T08:13:36;3.70;;;1.27;;
71320;SDS011;59118;54.322;18.576;2022-09-17T08:16:06;3.33;;;1.40;;
71320;SDS011;59118;54.322;18.576;2022-09-17T08:18:35;2.47;;;0.90;;
71320;SDS011;59118;54.322;18.576;2022-09-17T08:21:05;1.90;;;1.10;;
71320;SDS011;59118;54.322;18.576;2022-09-17T08:23:35;2.97;;;1.50;;
71320;SDS011;59118;54.322;18.576;2022-09-17T08:26:06;2.63;;;1.27;;
71320;SDS011;59118;54.322;18.576;2022-09-17T08:28:36;4.57;;;1.40;;
71320;SDS011;59118;54.322;18.576;2022-09-17T08:31:06;5.03;;;1.53;;
71320;SDS011;59118;54.322;18.576;2022-09-17T08:33:37;4.35;;;1.67;;
71320;SDS011;59118;54.322;18.576;2022-09-17T08:36:11;5.53;;;1.70;;
71320;SDS011;59118;54.322;18.576;2022-09-17T08:38:43;4.03;;;1.80;;
71320;SDS011;59118;54.322;18.576;2022-09-17T08:44:40;4.57;;;1.70;;
71320;SDS011;59118;54.322;18.576;2022-09-17T08:47:33;2.97;;;1.52;;
71320;SDS011;59118;54.322;18.576;2022-09-17T08:50:06;4.20;;;1.42;;
71320;SDS011;59118;54.322;18.576;2022-09-17T08:55:49;3.83;;;1.42;;
71320;SDS011;59118;54.322;18.576;2022-09-17T08:58:40;4.47;;;1.70;;
71320;SDS011;59118;54.322;18.576;2022-09-17T09:08:55;5.30;;;1.95;;
71320;SDS011;59118;54.322;18.576;2022-09-17T09:11:37;3.55;;;1.60;;
71320;SDS011;59118;54.322;18.576;2022-09-17T09:15:37;2.63;;;1.30;;
71320;SDS011;59118;54.322;18.576;2022-09-17T09:19:25;4.60;;;2.20;;
71320;SDS011;59118;54.322;18.576;2022-09-17T09:23:00;5.57;;;1.40;;
71320;SDS011;59118;54.322;18.576;2022-09-17T09:37:51;5.97;;;1.45;;
71320;SDS011;59118;54.322;18.576;2022-09-17T10:01:07;6.88;;;1.40;;
71320;SDS011;59118;54.322;18.576;2022-09-17T10:03:38;3.75;;;1.33;;
71320;SDS011;59118;54.322;18.576;2022-09-17T10:06:07;4.73;;;1.30;;
71320;SDS011;59118;54.322;18.576;2022-09-17T10:08:38;3.00;;;0.95;;
71320;SDS011;59118;54.322;18.576;2022-09-17T10:11:29;5.82;;;1.00;;
71320;SDS011;59118;54.322;18.576;2022-09-17T10:16:49;3.75;;;1.20;;
71320;SDS011;59118;54.322;18.576;2022-09-17T10:19:37;3.50;;;1.10;;
71320;SDS011;59118;54.322;18.576;2022-09-17T10:22:18;3.58;;;1.00;;
71320;SDS011;59118;54.322;18.576;2022-09-17T10:24:48;3.17;;;1.23;;
71320;SDS011;59118;54.322;18.576;2022-09-17T10:27:17;2.60;;;0.82;;
71320;SDS011;59118;54.322;18.576;2022-09-17T10:29:46;2.03;;;0.95;;
71320;SDS011;59118;54.322;18.576;2022-09-17T10:32:23;3.07;;;1.10;;
71320;SDS011;59118;54.322;18.576;2022-09-17T10:35:03;6.68;;;1.00;;
71320;SDS011;59118;54.322;18.576;2022-09-17T10:42:49;4.07;;;1.08;;
71320;SDS011;59118;54.322;18.576;2022-09-17T10:45:39;4.33;;;1.10;;
71320;SDS011;59118;54.322;18.576;2022-09-17T10:48:14;4.20;;;0.90;;
71320;SDS011;59118;54.322;18.576;2022-09-17T10:50:46;1.85;;;0.70;;
71320;SDS011;59118;54.322;18.576;2022-09-17T10:53:14;2.33;;;0.73;;
71320;SDS011;59118;54.322;18.576;2022-09-17T10:55:43;3.67;;;0.95;;
71320;SDS011;59118;54.322;18.576;2022-09-17T11:01:09;1.77;;;0.60;;
71320;SDS011;59118;54.322;18.576;2022-09-17T11:07:18;1.88;;;0.50;;
71320;SDS011;59118;54.322;18.576;2022-09-17T11:18:22;3.25;;;0.40;;
71320;SDS011;59118;54.322;18.576;2022-09-17T11:27:02;1.53;;;0.50;;
71320;SDS011;59118;54.322;18.576;2022-09-17T11:29:43;2.10;;;0.60;;
71320;SDS011;59118;54.322;18.576;2022-09-17T11:35:19;1.50;;;0.50;;
71320;SDS011;59118;54.322;18.576;2022-09-17T11:37:57;2.92;;;0.70;;
71320;SDS011;59118;54.322;18.576;2022-09-17T11:40:36;5.23;;;0.80;;
71320;SDS011;59118;54.322;18.576;2022-09-17T11:43:12;3.20;;;1.10;;
71320;SDS011;59118;54.322;18.576;2022-09-17T11:46:13;3.63;;;1.08;;
71320;SDS011;59118;54.322;18.576;2022-09-17T11:48:52;2.58;;;0.70;;
71320;SDS011;59118;54.322;18.576;2022-09-17T11:54:07;2.97;;;0.93;;
71320;SDS011;59118;54.322;18.576;2022-09-17T11:56:46;2.75;;;1.10;;
71320;SDS011;59118;54.322;18.576;2022-09-17T12:01:57;3.80;;;1.00;;
71320;SDS011;59118;54.322;18.576;2022-09-17T12:04:30;3.97;;;0.93;;
71320;SDS011;59118;54.322;18.576;2022-09-17T12:07:10;3.97;;;1.00;;
71320;SDS011;59118;54.322;18.576;2022-09-17T12:09:42;3.25;;;0.90;;
71320;SDS011;59118;54.322;18.576;2022-09-17T12:12:15;3.08;;;0.80;;
71320;SDS011;59118;54.322;18.576;2022-09-17T12:15:17;1.38;;;0.47;;
71320;SDS011;59118;54.322;18.576;2022-09-17T12:18:31;1.98;;;0.50;;
71320;SDS011;59118;54.322;18.576;2022-09-17T12:20:58;4.30;;;0.70;;
71320;SDS011;59118;54.322;18.576;2022-09-17T12:23:36;3.38;;;0.80;;
71320;SDS011;59118;54.322;18.576;2022-09-17T12:31:38;2.63;;;0.70;;
71320;SDS011;59118;54.322;18.576;2022-09-17T12:37:09;1.38;;;0.70;;
71320;SDS011;59118;54.322;18.576;2022-09-17T12:39:50;1.88;;;0.65;;
71320;SDS011;59118;54.322;18.576;2022-09-17T12:42:52;3.08;;;0.70;;
71320;SDS011;59118;54.322;18.576;2022-09-17T12:45:27;0.93;;;0.43;;
71320;SDS011;59118;54.322;18.576;2022-09-17T12:57:09;1.90;;;0.50;;
71320;SDS011;59118;54.322;18.576;2022-09-17T12:59:49;2.50;;;0.70;;
71320;SDS011;59118;54.322;18.576;2022-09-17T13:02:26;1.17;;;0.60;;
71320;SDS011;59118;54.322;18.576;2022-09-17T13:19:20;1.98;;;0.80;;
71320;SDS011;59118;54.322;18.576;2022-09-17T13:22:03;3.63;;;0.70;;
71320;SDS011;59118;54.322;18.576;2022-09-17T13:24:32;2.55;;;0.80;;
71320;SDS011;59118;54.322;18.576;2022-09-17T13:27:01;2.63;;;0.60;;
71320;SDS011;59118;54.322;18.576;2022-09-17T13:37:40;3.67;;;0.80;;
71320;SDS011;59118;54.322;18.576;2022-09-17T13:40:23;4.20;;;0.60;;
71320;SDS011;59118;54.322;18.576;2022-09-17T13:42:52;3.03;;;0.70;;
71320;SDS011;59118;54.322;18.576;2022-09-17T13:45:23;2.90;;;0.90;;
71320;SDS011;59118;54.322;18.576;2022-09-17T13:52:52;3.13;;;0.73;;
71320;SDS011;59118;54.322;18.576;2022-09-17T13:55:29;2.73;;;0.80;;
71320;SDS011;59118;54.322;18.576;2022-09-17T13:57:56;3.75;;;0.70;;
71320;SDS011;59118;54.322;18.576;2022-09-17T14:00:45;4.30;;;1.00;;
71320;SDS011;59118;54.322;18.576;2022-09-17T14:17:00;3.33;;;0.75;;
71320;SDS011;59118;54.322;18.576;2022-09-17T14:19:24;3.20;;;0.80;;
71320;SDS011;59118;54.322;18.576;2022-09-17T14:24:23;2.15;;;0.70;;
71320;SDS011;59118;54.322;18.576;2022-09-17T14:27:09;3.55;;;0.70;;
71320;SDS011;59118;54.322;18.576;2022-09-17T14:32:43;2.35;;;0.65;;
71320;SDS011;59118;54.322;18.576;2022-09-17T14:35:22;3.20;;;0.90;;
71320;SDS011;59118;54.322;18.576;2022-09-17T14:37:53;4.00;;;0.88;;
71320;SDS011;59118;54.322;18.576;2022-09-17T14:40:23;3.42;;;0.70;;
71320;SDS011;59118;54.322;18.576;2022-09-17T14:42:51;2.35;;;0.50;;
71320;SDS011;59118;54.322;18.576;2022-09-17T14:45:21;2.17;;;0.70;;
71320;SDS011;59118;54.322;18.576;2022-09-17T14:48:15;2.87;;;0.80;;
71320;SDS011;59118;54.322;18.576;2022-09-17T14:56:11;6.60;;;0.85;;
71320;SDS011;59118;54.322;18.576;2022-09-17T14:58:40;3.40;;;0.75;;
71320;SDS011;59118;54.322;18.576;2022-09-17T15:01:30;3.03;;;0.90;;
71320;SDS011;59118;54.322;18.576;2022-09-17T15:06:38;2.97;;;0.73;;
71320;SDS011;59118;54.322;18.576;2022-09-17T15:09:17;2.80;;;0.90;;
71320;SDS011;59118;54.322;18.576;2022-09-17T15:11:54;2.35;;;0.80;;
71320;SDS011;59118;54.322;18.576;2022-09-17T15:14:22;3.80;;;0.80;;
71320;SDS011;59118;54.322;18.576;2022-09-17T15:16:55;2.42;;;0.65;;
71320;SDS011;59118;54.322;18.576;2022-09-17T15:21:50;3.60;;;0.60;;
71320;SDS011;59118;54.322;18.576;2022-09-17T15:30:35;3.10;;;0.90;;
71320;SDS011;59118;54.322;18.576;2022-09-17T15:32:52;2.97;;;0.80;;
71320;SDS011;59118;54.322;18.576;2022-09-17T15:35:26;3.30;;;0.70;;
71320;SDS011;59118;54.322;18.576;2022-09-17T15:38:19;3.30;;;0.80;;
71320;SDS011;59118;54.322;18.576;2022-09-17T15:40:49;4.23;;;1.10;;
71320;SDS011;59118;54.322;18.576;2022-09-17T15:43:17;3.38;;;0.90;;
71320;SDS011;59118;54.322;18.576;2022-09-17T15:45:47;4.25;;;1.08;;
71320;SDS011;59118;54.322;18.576;2022-09-17T15:48:22;3.22;;;1.00;;
71320;SDS011;59118;54.322;18.576;2022-09-17T15:51:00;3.00;;;1.00;;
71320;SDS011;59118;54.322;18.576;2022-09-17T15:53:30;3.83;;;0.93;;
71320;SDS011;59118;54.322;18.576;2022-09-17T16:08:59;3.63;;;0.93;;
71320;SDS011;59118;54.322;18.576;2022-09-17T16:11:27;3.35;;;1.20;;
71320;SDS011;59118;54.322;18.576;2022-09-17T16:13:57;3.88;;;0.90;;
71320;SDS011;59118;54.322;18.576;2022-09-17T16:16:33;2.33;;;0.90;;
71320;SDS011;59118;54.322;18.576;2022-09-17T16:19:02;5.63;;;0.87;;
71320;SDS011;59118;54.322;18.576;2022-09-17T16:21:30;3.88;;;1.00;;
71320;SDS011;59118;54.322;18.576;2022-09-17T16:24:01;4.00;;;1.08;;
71320;SDS011;59118;54.322;18.576;2022-09-17T16:26:32;4.43;;;1.30;;
71320;SDS011;59118;54.322;18.576;2022-09-17T16:29:03;2.35;;;0.80;;
71320;SDS011;59118;54.322;18.576;2022-09-17T16:31:32;1.73;;;0.73;;
71320;SDS011;59118;54.322;18.576;2022-09-17T16:33:59;4.07;;;1.00;;
71320;SDS011;59118;54.322;18.576;2022-09-17T16:36:26;1.40;;;0.70;;
71320;SDS011;59118;54.322;18.576;2022-09-17T16:38:56;2.42;;;0.65;;
71320;SDS011;59118;54.322;18.576;2022-09-17T16:41:26;2.17;;;0.80;;
71320;SDS011;59118;54.322;18.576;2022-09-17T16:43:52;2.10;;;0.80;;
71320;SDS011;59118;54.322;18.576;2022-09-17T16:46:19;3.45;;;0.70;;
71320;SDS011;59118;54.322;18.576;2022-09-17T16:48:48;3.10;;;1.10;;
71320;SDS011;59118;54.322;18.576;2022-09-17T16:51:15;2.22;;;0.82;;
71320;SDS011;59118;54.322;18.576;2022-09-17T16:53:42;3.55;;;1.13;;
71320;SDS011;59118;54.322;18.576;2022-09-17T16:56:10;3.13;;;1.20;;
71320;SDS011;59118;54.322;18.576;2022-09-17T16:58:37;3.95;;;1.20;;
71320;SDS011;59118;54.322;18.576;2022-09-17T17:01:07;3.72;;;1.15;;
71320;SDS011;59118;54.322;18.576;2022-09-17T17:03:37;6.00;;;1.40;;
71320;SDS011;59118;54.322;18.576;2022-09-17T17:06:05;4.38;;;1.20;;
71320;SDS011;59118;54.322;18.576;2022-09-17T17:08:32;4.17;;;1.50;;
71320;SDS011;59118;54.322;18.576;2022-09-17T17:10:59;2.85;;;1.30;;
71320;SDS011;59118;54.322;18.576;2022-09-17T17:13:26;3.33;;;1.20;;
71320;SDS011;59118;54.322;18.576;2022-09-17T17:15:53;3.97;;;1.67;;
71320;SDS011;59118;54.322;18.576;2022-09-17T17:18:21;4.03;;;1.50;;
71320;SDS011;59118;54.322;18.576;2022-09-17T17:20:48;6.83;;;2.70;;
71320;SDS011;59118;54.322;18.576;2022-09-17T17:23:15;5.97;;;1.65;;
71320;SDS011;59118;54.322;18.576;2022-09-17T17:25:43;6.32;;;1.92;;
71320;SDS011;59118;54.322;18.576;2022-09-17T17:28:13;2.78;;;1.33;;
71320;SDS011;59118;54.322;18.576;2022-09-17T17:30:45;5.38;;;1.20;;
71320;SDS011;59118;54.322;18.576;2022-09-17T17:33:12;4.27;;;1.67;;
71320;SDS011;59118;54.322;18.576;2022-09-17T17:35:38;7.22;;;2.10;;
71320;SDS011;59118;54.322;18.576;2022-09-17T17:38:05;5.38;;;1.90;;
71320;SDS011;59118;54.322;18.576;2022-09-17T17:40:32;6.50;;;2.05;;
71320;SDS011;59118;54.322;18.576;2022-09-17T17:42:58;7.10;;;2.67;;
71320;SDS011;59118;54.322;18.576;2022-09-17T17:45:25;5.77;;;2.00;;
71320;SDS011;59118;54.322;18.576;2022-09-17T17:47:51;7.10;;;2.45;;
71320;SDS011;59118;54.322;18.576;2022-09-17T17:50:18;5.32;;;2.35;;
71320;SDS011;59118;54.322;18.576;2022-09-17T17:52:44;7.88;;;3.20;;
71320;SDS011;59118;54.322;18.576;2022-09-17T17:55:14;7.63;;;3.40;;
71320;SDS011;59118;54.322;18.576;2022-09-17T17:57:41;8.83;;;3.60;;
71320;SDS011;59118;54.322;18.576;2022-09-17T18:00:07;7.38;;;3.33;;
71320;SDS011;59118;54.322;18.576;2022-09-17T18:02:37;8.45;;;3.47;;
71320;SDS011;59118;54.322;18.576;2022-09-17T18:05:04;10.60;;;3.50;;
71320;SDS011;59118;54.322;18.576;2022-09-17T18:07:31;8.75;;;3.72;;
71320;SDS011;59118;54.322;18.576;2022-09-17T18:09:57;8.77;;;4.17;;
71320;SDS011;59118;54.322;18.576;2022-09-17T18:12:28;6.78;;;3.28;;
71320;SDS011;59118;54.322;18.576;2022-09-17T18:14:54;10.18;;;4.05;;
71320;SDS011;59118;54.322;18.576;2022-09-17T18:17:23;9.93;;;3.67;;
71320;SDS011;59118;54.322;18.576;2022-09-17T18:19:49;9.77;;;3.65;;
71320;SDS011;59118;54.322;18.576;2022-09-17T18:22:16;8.40;;;3.67;;
71320;SDS011;59118;54.322;18.576;2022-09-17T18:24:43;9.57;;;3.53;;
71320;SDS011;59118;54.322;18.576;2022-09-17T18:27:10;8.27;;;3.10;;
71320;SDS011;59118;54.322;18.576;2022-09-17T18:29:36;7.78;;;3.08;;
71320;SDS011;59118;54.322;18.576;2022-09-17T18:32:04;8.98;;;3.60;;
71320;SDS011;59118;54.322;18.576;2022-09-17T18:34:31;8.07;;;3.40;;
71320;SDS011;59118;54.322;18.576;2022-09-17T18:37:01;8.82;;;3.72;;
71320;SDS011;59118;54.322;18.576;2022-09-17T18:39:31;11.30;;;3.58;;
71320;SDS011;59118;54.322;18.576;2022-09-17T18:42:18;12.15;;;4.03;;